Time;durP1;ratioP1;P1;durP2;ratioP2;P2;SDS_P1;SDS_P2;PMS_P1;PMS_P2;Temp;Humidity;BMP_temperature;BMP_pressure;BME280_temperature;BME280_humidity;BME280_pressure;Samples;Min_cycle;Max_cycle;Signal;HPM_P1;HPM_P2
2022/10/15 00:00:47;;;;;;;89.25;59.55;;;12.20;99.90;;;;;;5073721;28;20068;-71
2022/10/15 00:03:13;;;;;;;86.63;59.50;;;12.20;99.90;;;;;;5057578;28;20056;-71
2022/10/15 00:05:40;;;;;;;91.35;61.08;;;12.20;99.90;;;;;;5050802;28;20049;-71
2022/10/15 00:08:07;;;;;;;99.35;64.45;;;12.20;99.90;;;;;;5029918;28;20369;-71
2022/10/15 00:10:34;;;;;;;96.45;64.38;;;12.20;99.90;;;;;;5026615;28;20044;-71
2022/10/15 00:13:00;;;;;;;79.80;56.90;;;12.20;99.90;;;;;;5053194;28;20076;-71
2022/10/15 00:15:25;;;;;;;88.05;61.17;;;12.20;99.90;;;;;;5030229;28;20079;-71
2022/10/15 00:17:51;;;;;;;86.55;60.72;;;12.20;99.90;;;;;;5030848;28;20248;-71
2022/10/15 00:20:17;;;;;;;101.28;63.92;;;12.20;99.90;;;;;;5053469;28;20044;-71
2022/10/15 00:22:43;;;;;;;89.07;60.33;;;12.20;99.90;;;;;;5050736;28;20499;-71
2022/10/15 00:25:09;;;;;;;94.97;63.92;;;12.20;99.90;;;;;;5031642;28;20095;-71
2022/10/15 00:27:36;;;;;;;87.03;61.28;;;12.20;99.90;;;;;;5038351;28;20047;-71
2022/10/15 00:30:03;;;;;;;88.15;63.45;;;12.20;99.90;;;;;;5037419;28;20042;-71
2022/10/15 00:32:30;;;;;;;90.63;60.95;;;12.20;99.90;;;;;;5052438;28;20048;-71
2022/10/15 00:34:56;;;;;;;85.55;59.70;;;12.20;99.90;;;;;;5056274;28;20098;-71
2022/10/15 00:37:22;;;;;;;104.28;68.53;;;12.20;99.90;;;;;;5061031;28;20049;-71
2022/10/15 00:39:48;;;;;;;87.28;61.58;;;12.20;99.90;;;;;;5057615;28;20049;-71
2022/10/15 00:42:14;;;;;;;93.75;63.22;;;12.20;99.90;;;;;;5027098;28;20055;-71
2022/10/15 00:44:52;;;;;;;84.80;62.05;;;12.20;99.90;;;;;;5061249;28;20086;-71
2022/10/15 00:47:38;;;;;;;122.90;71.45;;;12.20;99.90;;;;;;5045831;28;20060;-71
2022/10/15 00:50:06;;;;;;;97.85;65.53;;;12.20;99.90;;;;;;5042673;28;20048;-71
2022/10/15 00:53:01;;;;;;;97.00;66.68;;;12.20;99.90;;;;;;5054742;28;20048;-71
2022/10/15 00:55:28;;;;;;;111.70;70.88;;;12.20;99.90;;;;;;5049543;28;20105;-71
2022/10/15 00:57:57;;;;;;;110.75;72.63;;;12.20;99.90;;;;;;5044811;28;20051;-71
2022/10/15 01:00:23;;;;;;;88.85;64.50;;;12.20;99.90;;;;;;5043855;28;20544;-71
2022/10/15 01:02:49;;;;;;;90.97;63.10;;;12.20;99.90;;;;;;5041848;28;20067;-70
2022/10/15 01:05:16;;;;;;;95.57;66.60;;;12.20;99.90;;;;;;5024657;28;20045;-75
2022/10/15 01:07:42;;;;;;;111.85;73.28;;;12.20;99.90;;;;;;5047811;28;20706;-74
2022/10/15 01:10:10;;;;;;;110.70;73.63;;;12.20;99.90;;;;;;5027697;28;20046;-75
2022/10/15 01:12:48;;;;;;;113.07;72.63;;;12.20;99.90;;;;;;5058931;28;20674;-75
2022/10/15 01:15:50;;;;;;;106.55;69.15;;;12.20;99.90;;;;;;5062868;28;20089;-74
2022/10/15 01:18:35;;;;;;;115.30;75.75;;;12.20;99.90;;;;;;5062209;28;20438;-74
2022/10/15 01:21:46;;;;;;;104.70;71.22;;;12.20;99.90;;;;;;5041118;28;20041;-75
2022/10/15 01:24:40;;;;;;;103.70;69.97;;;12.20;99.90;;;;;;5058245;28;20052;-75
2022/10/15 01:27:30;;;;;;;98.18;67.10;;;12.20;99.90;;;;;;5043502;28;20052;-75
2022/10/15 01:30:04;;;;;;;105.53;72.45;;;12.20;99.90;;;;;;5058719;28;20449;-75
2022/10/15 01:32:37;;;;;;;97.03;66.40;;;12.20;99.90;;;;;;5058306;28;20078;-75
2022/10/15 01:35:12;;;;;;;100.45;69.10;;;12.10;99.90;;;;;;5056054;28;20107;-75
2022/10/15 01:38:01;;;;;;;128.90;77.25;;;12.20;99.90;;;;;;5055695;28;20546;-75
2022/10/15 01:40:49;;;;;;;108.25;70.75;;;12.20;99.90;;;;;;5040302;28;20135;-75
2022/10/15 01:43:21;;;;;;;109.30;67.63;;;12.10;99.90;;;;;;5041994;28;20119;-75
2022/10/15 01:46:05;;;;;;;120.70;76.68;;;12.20;99.90;;;;;;5053572;28;20099;-75
2022/10/15 01:48:33;;;;;;;102.32;68.57;;;12.10;99.90;;;;;;5055279;28;20049;-74
2022/10/15 01:51:02;;;;;;;114.07;71.78;;;12.10;99.90;;;;;;5055672;28;20673;-75
2022/10/15 01:53:29;;;;;;;93.90;68.43;;;12.10;99.90;;;;;;5050762;28;20114;-75
2022/10/15 01:56:00;;;;;;;97.75;66.68;;;12.10;99.90;;;;;;5028890;28;20916;-75
2022/10/15 01:58:32;;;;;;;102.75;70.65;;;12.10;99.90;;;;;;5051075;28;21769;-75
2022/10/15 02:00:58;;;;;;;95.45;67.15;;;12.10;99.90;;;;;;5040233;28;20072;-75
2022/10/15 02:03:24;;;;;;;92.32;66.25;;;12.10;99.90;;;;;;5052286;28;20467;-75
2022/10/15 02:06:09;;;;;;;97.90;69.68;;;12.10;99.90;;;;;;5041186;28;20052;-75
2022/10/15 02:09:03;;;;;;;93.13;65.13;;;12.10;99.90;;;;;;5053264;28;20044;-75
2022/10/15 02:11:36;;;;;;;88.78;64.25;;;12.00;99.90;;;;;;5028470;28;20053;-75
2022/10/15 02:14:10;;;;;;;92.03;65.47;;;12.00;99.90;;;;;;5074232;28;20052;-75
2022/10/15 02:16:44;;;;;;;76.25;59.38;;;12.00;99.90;;;;;;5049448;28;20135;-75
2022/10/15 02:19:39;;;;;;;67.90;55.08;;;12.00;99.90;;;;;;5050564;28;20037;-75
2022/10/15 02:22:10;;;;;;;77.97;57.85;;;12.00;99.90;;;;;;5054811;28;20041;-76
2022/10/15 02:24:45;;;;;;;94.00;65.82;;;12.00;99.90;;;;;;5053587;28;20526;-75
2022/10/15 02:27:14;;;;;;;74.80;57.15;;;12.00;99.90;;;;;;5068345;28;20056;-75
2022/10/15 02:29:43;;;;;;;94.80;66.63;;;12.00;99.90;;;;;;5045773;28;20084;-75
2022/10/15 02:32:10;;;;;;;94.00;64.57;;;12.00;99.90;;;;;;5057310;28;20043;-75
2022/10/15 02:34:37;;;;;;;76.85;58.45;;;12.00;99.90;;;;;;5055349;28;20510;-75
2022/10/15 02:37:05;;;;;;;96.80;64.50;;;12.00;99.90;;;;;;5043692;28;20080;-75
2022/10/15 02:39:33;;;;;;;74.30;57.72;;;12.00;99.90;;;;;;5044283;28;20052;-74
2022/10/15 02:42:02;;;;;;;82.85;59.60;;;12.00;99.90;;;;;;5031960;28;20045;-75
2022/10/15 02:44:27;;;;;;;74.38;57.47;;;12.00;99.90;;;;;;5057878;28;20049;-75
2022/10/15 02:46:54;;;;;;;135.88;76.60;;;12.00;99.90;;;;;;5036062;28;20056;-75
2022/10/15 02:49:20;;;;;;;86.60;61.38;;;12.00;99.90;;;;;;5040343;28;20043;-75
2022/10/15 02:51:46;;;;;;;71.57;56.47;;;12.00;99.90;;;;;;5041079;28;20045;-75
2022/10/15 02:54:11;;;;;;;91.53;60.97;;;12.00;99.90;;;;;;5054610;28;20049;-75
2022/10/15 02:56:38;;;;;;;86.95;60.25;;;12.00;99.90;;;;;;5042702;28;20048;-75
2022/10/15 02:59:04;;;;;;;68.32;52.45;;;12.00;99.90;;;;;;5050817;28;20106;-75
2022/10/15 03:01:31;;;;;;;76.88;58.38;;;12.00;99.90;;;;;;5047275;28;20380;-75
2022/10/15 03:03:57;;;;;;;65.93;53.83;;;12.00;99.90;;;;;;5031114;28;21010;-75
2022/10/15 03:06:23;;;;;;;76.97;58.20;;;12.00;99.90;;;;;;5020268;28;20037;-75
2022/10/15 03:08:48;;;;;;;79.15;55.33;;;12.00;99.90;;;;;;5036469;28;20360;-75
2022/10/15 03:11:14;;;;;;;67.25;51.50;;;12.00;99.90;;;;;;5038877;28;20071;-75
2022/10/15 03:13:40;;;;;;;73.80;53.65;;;12.00;99.90;;;;;;5054601;28;20044;-75
2022/10/15 03:16:08;;;;;;;71.13;52.38;;;12.00;99.90;;;;;;5043235;28;20048;-75
2022/10/15 03:18:34;;;;;;;64.68;49.85;;;12.00;99.90;;;;;;5056854;28;20462;-74
2022/10/15 03:21:00;;;;;;;79.43;55.58;;;12.00;99.90;;;;;;5036893;28;20065;-75
2022/10/15 03:23:27;;;;;;;68.72;50.63;;;12.00;99.90;;;;;;5062014;28;20036;-74
2022/10/15 03:25:53;;;;;;;66.07;51.47;;;11.90;99.90;;;;;;5052548;28;20055;-75
2022/10/15 03:28:19;;;;;;;66.68;49.97;;;12.00;99.90;;;;;;5051380;28;20050;-75
2022/10/15 03:30:45;;;;;;;73.32;53.47;;;12.00;99.90;;;;;;5059375;28;20056;-75
2022/10/15 03:33:11;;;;;;;71.97;51.75;;;12.00;99.90;;;;;;5062572;28;20045;-75
2022/10/15 03:35:38;;;;;;;108.35;62.30;;;11.90;99.90;;;;;;5044701;28;20037;-75
2022/10/15 03:38:04;;;;;;;67.20;50.55;;;11.90;99.90;;;;;;5034154;28;20052;-75
2022/10/15 03:40:33;;;;;;;71.43;51.42;;;12.00;99.90;;;;;;5042847;28;20048;-75
2022/10/15 03:43:02;;;;;;;67.82;49.22;;;11.90;99.90;;;;;;5038442;28;20346;-75
2022/10/15 03:45:28;;;;;;;67.60;50.00;;;11.90;99.90;;;;;;5039717;28;20036;-75
2022/10/15 03:47:54;;;;;;;68.57;50.22;;;11.90;99.90;;;;;;5039546;28;20737;-75
2022/10/15 03:50:20;;;;;;;69.60;50.80;;;11.90;99.90;;;;;;5035105;28;20039;-75
2022/10/15 03:52:46;;;;;;;135.25;63.03;;;11.90;99.90;;;;;;5059028;28;20045;-75
2022/10/15 03:55:11;;;;;;;79.78;55.35;;;11.90;99.90;;;;;;5034253;28;20091;-75
2022/10/15 03:57:38;;;;;;;78.28;54.60;;;11.80;99.90;;;;;;5054005;28;20037;-75
2022/10/15 04:00:06;;;;;;;78.50;53.20;;;11.90;99.90;;;;;;5041357;28;20056;-75
2022/10/15 04:02:32;;;;;;;74.20;52.70;;;11.90;99.90;;;;;;5067246;28;20057;-75
2022/10/15 04:04:57;;;;;;;80.75;54.47;;;11.80;99.90;;;;;;5033199;28;20056;-75
2022/10/15 04:07:26;;;;;;;115.65;63.97;;;11.80;99.90;;;;;;5050360;28;20045;-75
2022/10/15 04:09:52;;;;;;;86.13;56.60;;;11.80;99.90;;;;;;5021385;28;20394;-75
2022/10/15 04:12:18;;;;;;;84.68;57.92;;;11.80;99.90;;;;;;5036169;28;20078;-75
2022/10/15 04:14:44;;;;;;;81.82;57.10;;;11.80;99.90;;;;;;5021194;28;20495;-75
2022/10/15 04:17:10;;;;;;;77.45;55.50;;;11.80;99.90;;;;;;5058997;28;20125;-75
2022/10/15 04:19:36;;;;;;;91.20;61.45;;;11.80;99.90;;;;;;5048521;28;20048;-75
2022/10/15 04:22:03;;;;;;;126.70;70.50;;;11.80;99.90;;;;;;5029527;28;20415;-75
2022/10/15 04:24:32;;;;;;;83.57;59.13;;;11.80;99.90;;;;;;5043993;28;20561;-74
2022/10/15 04:27:00;;;;;;;88.90;58.85;;;11.80;99.90;;;;;;5056163;28;20498;-75
2022/10/15 04:29:26;;;;;;;114.75;67.70;;;11.80;99.90;;;;;;5060762;28;20037;-75
2022/10/15 04:31:52;;;;;;;101.97;64.28;;;11.80;99.90;;;;;;5055208;28;20095;-75
2022/10/15 04:34:18;;;;;;;117.75;67.95;;;11.70;99.90;;;;;;5032988;28;20235;-75
2022/10/15 04:36:44;;;;;;;97.82;64.32;;;11.80;99.90;;;;;;5036405;28;20478;-75
2022/10/15 04:39:10;;;;;;;115.57;67.65;;;11.70;99.90;;;;;;5052086;28;20036;-75
2022/10/15 04:41:35;;;;;;;101.30;66.18;;;11.70;99.90;;;;;;5058590;28;20048;-75
2022/10/15 04:44:01;;;;;;;90.30;61.60;;;11.70;99.90;;;;;;5044576;28;20047;-75
2022/10/15 04:46:27;;;;;;;102.63;68.00;;;11.70;99.90;;;;;;5050159;28;20040;-75
2022/10/15 04:48:56;;;;;;;95.93;61.88;;;11.60;99.90;;;;;;5040447;28;20088;-75
2022/10/15 04:51:23;;;;;;;104.32;65.43;;;11.70;99.90;;;;;;5028980;28;20093;-75
2022/10/15 04:53:49;;;;;;;111.07;70.10;;;11.60;99.90;;;;;;5045339;28;20049;-75
2022/10/15 04:56:18;;;;;;;96.88;65.00;;;11.60;99.90;;;;;;5037812;28;20045;-75
2022/10/15 04:58:46;;;;;;;113.80;69.80;;;11.60;99.90;;;;;;5043398;28;20048;-75
2022/10/15 05:01:14;;;;;;;160.55;78.90;;;11.60;99.90;;;;;;5038282;28;20289;-75
2022/10/15 05:03:45;;;;;;;122.40;72.97;;;11.60;99.90;;;;;;5044549;28;20052;-75
2022/10/15 05:06:12;;;;;;;;;;;11.50;99.90;;;;;;5061001;28;20037;-75
2022/10/15 05:08:42;;;;;;;121.72;72.35;;;11.50;99.90;;;;;;5054988;28;19924;-75
2022/10/15 05:11:11;;;;;;;113.07;72.70;;;11.50;99.90;;;;;;5064483;28;20530;-75
2022/10/15 05:13:37;;;;;;;118.07;74.18;;;11.50;99.90;;;;;;5054872;28;20060;-75
2022/10/15 05:16:14;;;;;;;111.80;70.80;;;11.50;99.90;;;;;;5037536;28;20048;-71
2022/10/15 05:18:41;;;;;;;208.68;90.25;;;11.50;99.90;;;;;;5037373;28;20063;-71
2022/10/15 05:21:08;;;;;;;122.10;75.35;;;11.50;99.90;;;;;;5031415;28;20574;-71
2022/10/15 05:23:35;;;;;;;127.35;74.43;;;11.50;99.90;;;;;;5061226;28;20041;-71
2022/10/15 05:26:03;;;;;;;149.98;79.40;;;11.50;99.90;;;;;;5050941;28;20056;-71
2022/10/15 05:28:30;;;;;;;133.23;77.35;;;11.50;99.90;;;;;;5061121;28;20446;-71
2022/10/15 05:31:01;;;;;;;114.85;70.53;;;11.50;99.90;;;;;;5038957;28;20036;-71
2022/10/15 05:33:27;;;;;;;148.63;81.78;;;11.50;99.90;;;;;;5062249;28;20451;-71
2022/10/15 05:35:53;;;;;;;156.35;82.32;;;11.50;99.90;;;;;;5025208;28;20055;-71
2022/10/15 05:38:19;;;;;;;119.95;72.38;;;11.50;99.90;;;;;;5057991;28;20049;-71
2022/10/15 05:40:48;;;;;;;123.25;74.93;;;11.50;99.90;;;;;;5029358;28;20044;-71
2022/10/15 05:43:14;;;;;;;120.28;71.72;;;11.50;99.90;;;;;;5038656;28;20037;-71
2022/10/15 05:45:43;;;;;;;106.20;68.68;;;11.50;99.90;;;;;;5057349;28;20052;-71
2022/10/15 05:48:08;;;;;;;157.27;82.72;;;11.50;99.90;;;;;;5046671;28;20511;-71
2022/10/15 05:50:34;;;;;;;110.45;71.28;;;11.50;99.90;;;;;;5047929;28;20067;-71
2022/10/15 05:53:00;;;;;;;134.50;77.30;;;11.50;99.90;;;;;;5045007;28;20036;-71
2022/10/15 05:55:28;;;;;;;118.97;74.25;;;11.50;99.90;;;;;;5040750;28;20056;-71
2022/10/15 05:57:54;;;;;;;165.95;83.72;;;11.50;99.90;;;;;;5033259;28;20103;-71
2022/10/15 06:00:20;;;;;;;123.22;72.90;;;11.50;99.90;;;;;;5032636;28;20037;-71
2022/10/15 06:02:49;;;;;;;132.90;77.95;;;11.50;99.90;;;;;;5027958;28;20076;-71
2022/10/15 06:05:15;;;;;;;159.20;81.78;;;11.50;99.90;;;;;;5030354;28;20040;-71
2022/10/15 06:07:40;;;;;;;125.93;74.50;;;11.50;99.90;;;;;;5048523;28;20055;-71
2022/10/15 06:10:06;;;;;;;155.20;82.10;;;11.50;99.90;;;;;;5030525;28;20491;-71
2022/10/15 06:12:32;;;;;;;124.50;75.68;;;11.50;99.90;;;;;;5054597;28;20090;-71
2022/10/15 06:14:58;;;;;;;132.77;77.07;;;11.50;99.90;;;;;;5054970;28;20206;-71
2022/10/15 06:17:24;;;;;;;124.63;75.93;;;11.50;99.90;;;;;;5057112;28;20080;-71
2022/10/15 06:19:50;;;;;;;134.85;78.70;;;11.60;99.90;;;;;;5059433;28;20037;-71
2022/10/15 06:22:16;;;;;;;118.65;73.60;;;11.60;99.90;;;;;;5040580;28;20056;-71
2022/10/15 06:24:41;;;;;;;127.88;78.63;;;11.60;99.90;;;;;;5056468;28;20105;-71
2022/10/15 06:27:08;;;;;;;177.40;88.10;;;11.60;99.90;;;;;;5039158;28;20119;-71
2022/10/15 06:29:34;;;;;;;121.50;75.68;;;11.60;99.90;;;;;;5039849;28;20499;-71
2022/10/15 06:32:00;;;;;;;120.65;74.63;;;11.60;99.90;;;;;;5034142;28;20094;-71
2022/10/15 06:34:26;;;;;;;118.07;73.55;;;11.60;99.90;;;;;;5039588;28;20044;-71
2022/10/15 06:36:54;;;;;;;148.70;80.90;;;11.70;99.90;;;;;;5017745;28;20402;-71
2022/10/15 06:39:20;;;;;;;163.27;82.80;;;11.70;99.90;;;;;;5036280;28;20402;-71
2022/10/15 06:41:46;;;;;;;172.93;90.22;;;11.70;99.90;;;;;;5052891;28;20049;-71
2022/10/15 06:44:11;;;;;;;120.30;76.85;;;11.70;99.90;;;;;;5025194;28;20056;-71
2022/10/15 06:46:37;;;;;;;125.55;77.05;;;11.80;99.90;;;;;;5026353;28;20076;-71
2022/10/15 06:49:03;;;;;;;117.20;76.18;;;11.70;99.90;;;;;;5059029;28;20040;-71
2022/10/15 06:51:32;;;;;;;115.28;75.97;;;11.80;99.90;;;;;;5061542;28;20048;-71
2022/10/15 06:53:58;;;;;;;127.68;78.65;;;11.80;99.90;;;;;;5035844;28;20044;-71
2022/10/15 06:56:23;;;;;;;134.05;81.72;;;11.80;99.90;;;;;;5049764;28;20079;-71
2022/10/15 06:58:49;;;;;;;126.28;77.22;;;11.90;99.90;;;;;;5051126;28;20044;-75
2022/10/15 07:01:16;;;;;;;144.00;81.65;;;11.90;99.90;;;;;;5051107;28;20385;-75
2022/10/15 07:03:41;;;;;;;112.93;72.05;;;11.90;99.90;;;;;;5030928;28;20068;-75
2022/10/15 07:06:08;;;;;;;119.43;73.85;;;12.00;99.90;;;;;;5053810;28;20040;-75
2022/10/15 07:08:35;;;;;;;123.38;77.72;;;12.00;99.90;;;;;;5033405;28;20040;-75
2022/10/15 07:11:03;;;;;;;153.57;84.40;;;12.00;99.90;;;;;;5046944;28;20090;-75
2022/10/15 07:13:29;;;;;;;123.95;74.90;;;12.00;99.90;;;;;;5040588;28;20507;-71
2022/10/15 07:15:55;;;;;;;119.10;75.18;;;12.10;99.90;;;;;;5037273;28;20544;-71
2022/10/15 07:18:21;;;;;;;123.93;78.07;;;12.10;99.90;;;;;;5046555;28;20045;-71
2022/10/15 07:20:47;;;;;;;111.78;72.18;;;12.10;99.90;;;;;;5050027;28;20503;-71
2022/10/15 07:23:13;;;;;;;113.32;73.28;;;12.20;99.90;;;;;;5025299;28;20052;-71
2022/10/15 07:25:41;;;;;;;123.20;76.85;;;12.30;99.90;;;;;;5032207;28;20552;-71
2022/10/15 07:28:07;;;;;;;107.22;70.32;;;12.30;99.90;;;;;;5063442;28;20044;-71
2022/10/15 07:30:33;;;;;;;119.20;75.18;;;12.40;99.90;;;;;;5059975;28;20040;-71
2022/10/15 07:33:02;;;;;;;137.15;77.97;;;12.40;99.90;;;;;;5046765;28;20067;-71
2022/10/15 07:35:27;;;;;;;108.65;70.97;;;12.40;99.90;;;;;;5053070;28;20076;-71
2022/10/15 07:37:54;;;;;;;119.20;74.07;;;12.50;99.90;;;;;;5031364;28;20135;-71
2022/10/15 07:40:20;;;;;;;117.18;75.00;;;12.50;99.90;;;;;;5056649;28;20165;-71
2022/10/15 07:42:55;;;;;;;109.35;71.28;;;12.50;99.90;;;;;;5035535;28;20040;-72
2022/10/15 07:45:22;;;;;;;109.88;71.65;;;12.50;99.90;;;;;;5048395;28;20095;-71
2022/10/15 07:47:51;;;;;;;111.95;70.97;;;12.50;99.90;;;;;;5059895;28;20041;-72
2022/10/15 07:50:17;;;;;;;106.83;68.93;;;12.50;99.90;;;;;;5059393;28;20094;-71
2022/10/15 07:52:43;;;;;;;100.88;67.40;;;12.60;99.90;;;;;;5048760;28;20789;-71
2022/10/15 07:55:09;;;;;;;104.75;69.53;;;12.50;99.90;;;;;;5064950;28;20048;-72
2022/10/15 07:57:35;;;;;;;140.27;79.65;;;12.60;99.90;;;;;;5049834;28;20523;-72
2022/10/15 08:00:00;;;;;;;134.73;80.90;;;12.60;99.90;;;;;;5038264;28;20051;-72
2022/10/15 08:02:26;;;;;;;95.20;67.10;;;12.60;99.90;;;;;;5027836;28;20106;-72
2022/10/15 08:04:52;;;;;;;104.55;70.63;;;12.60;99.90;;;;;;5029983;28;20142;-70
2022/10/15 08:07:18;;;;;;;122.95;76.63;;;12.60;99.90;;;;;;5081164;28;20052;-70
2022/10/15 08:09:43;;;;;;;127.65;76.68;;;12.70;99.90;;;;;;5040106;28;20520;-74
2022/10/15 08:12:09;;;;;;;99.93;68.55;;;12.60;99.90;;;;;;5063383;28;20048;-74
2022/10/15 08:14:35;;;;;;;104.13;72.32;;;12.70;99.90;;;;;;5041348;28;20036;-74
2022/10/15 08:17:05;;;;;;;100.93;70.22;;;12.70;99.90;;;;;;5062169;28;20268;-74
2022/10/15 08:19:31;;;;;;;129.02;80.45;;;12.80;99.90;;;;;;5062979;28;20036;-75
2022/10/15 08:21:57;;;;;;;95.05;70.13;;;12.90;99.90;;;;;;5029415;28;20494;-74
2022/10/15 08:24:23;;;;;;;100.70;70.97;;;12.90;99.90;;;;;;5027393;28;20394;-74
2022/10/15 08:26:49;;;;;;;90.93;67.00;;;12.90;99.90;;;;;;5055920;28;20052;-74
2022/10/15 08:29:15;;;;;;;86.50;64.63;;;12.90;99.90;;;;;;5062505;28;20098;-74
2022/10/15 08:31:41;;;;;;;87.50;64.43;;;13.00;99.90;;;;;;5062236;28;20044;-75
2022/10/15 08:34:07;;;;;;;91.53;68.00;;;13.00;99.90;;;;;;5046410;28;20118;-74
2022/10/15 08:36:33;;;;;;;85.55;66.05;;;13.10;99.90;;;;;;5029061;28;20052;-74
2022/10/15 08:38:59;;;;;;;87.00;66.97;;;13.10;99.90;;;;;;5061110;28;20049;-74
2022/10/15 08:41:39;;;;;;;100.45;71.78;;;13.10;99.90;;;;;;5045734;28;20047;-74
2022/10/15 08:44:12;;;;;;;79.97;65.00;;;13.30;99.90;;;;;;5075333;28;20041;-74
2022/10/15 08:46:45;;;;;;;84.63;65.97;;;13.30;99.90;;;;;;5057125;28;20459;-74
2022/10/15 08:49:30;;;;;;;81.70;64.68;;;13.30;99.90;;;;;;5044219;28;20411;-74
2022/10/15 08:52:07;;;;;;;84.40;65.70;;;13.30;99.90;;;;;;5062655;28;20053;-74
2022/10/15 08:54:34;;;;;;;86.25;66.00;;;13.30;99.90;;;;;;5060267;28;20051;-74
2022/10/15 08:57:22;;;;;;;78.30;62.90;;;13.20;99.90;;;;;;5059718;28;20127;-74
2022/10/15 09:00:01;;;;;;;85.00;63.38;;;13.20;99.90;;;;;;5060034;28;20053;-74
2022/10/15 09:02:38;;;;;;;94.45;67.28;;;13.30;99.90;;;;;;5061041;28;20045;-74
2022/10/15 09:05:25;;;;;;;90.50;66.35;;;13.30;99.90;;;;;;5063589;28;20471;-74
2022/10/15 09:08:20;;;;;;;96.35;68.75;;;13.20;99.90;;;;;;5063063;28;20529;-74
2022/10/15 09:10:59;;;;;;;96.53;68.47;;;13.30;99.90;;;;;;5048023;28;20048;-74
2022/10/15 09:13:27;;;;;;;98.10;68.65;;;13.20;99.90;;;;;;5059751;28;20086;-74
2022/10/15 09:16:00;;;;;;;89.57;63.35;;;13.20;99.90;;;;;;5058406;28;20453;-73
2022/10/15 09:18:32;;;;;;;97.40;65.88;;;13.30;99.90;;;;;;5062185;28;21287;-75
2022/10/15 09:21:03;;;;;;;87.63;60.60;;;13.30;99.90;;;;;;5063042;28;20380;-74
2022/10/15 09:23:33;;;;;;;96.30;60.42;;;13.20;99.90;;;;;;5059125;28;20055;-74
2022/10/15 09:26:22;;;;;;;89.68;59.67;;;13.20;99.90;;;;;;5063137;28;20418;-75
2022/10/15 09:29:23;;;;;;;90.68;59.83;;;13.20;99.90;;;;;;5058013;28;20244;-75
2022/10/15 09:32:07;;;;;;;93.18;57.00;;;13.20;99.90;;;;;;5061565;28;20048;-75
2022/10/15 09:34:47;;;;;;;89.50;56.80;;;13.20;99.90;;;;;;5054106;28;20119;-77
2022/10/15 09:37:24;;;;;;;98.38;56.90;;;13.10;99.90;;;;;;5063826;28;20052;-76
2022/10/15 09:40:01;;;;;;;90.75;54.72;;;13.10;99.90;;;;;;5054374;28;20507;-77
2022/10/15 09:42:32;;;;;;;86.15;53.13;;;13.10;99.90;;;;;;5075454;28;20079;-77
2022/10/15 09:45:08;;;;;;;82.18;52.78;;;13.10;99.90;;;;;;5045157;28;20090;-75
2022/10/15 09:47:35;;;;;;;88.80;53.90;;;13.10;99.90;;;;;;5044920;28;20051;-75
2022/10/15 09:50:03;;;;;;;84.22;53.50;;;13.10;99.90;;;;;;5061307;28;20433;-75
2022/10/15 09:52:54;;;;;;;72.93;48.08;;;13.10;99.90;;;;;;5061100;28;20372;-70
2022/10/15 09:55:26;;;;;;;65.90;45.70;;;13.20;99.90;;;;;;5062113;28;20076;-70
2022/10/15 09:57:57;;;;;;;66.65;45.90;;;13.20;99.90;;;;;;5062244;28;20114;-70
2022/10/15 10:00:23;;;;;;;54.08;40.88;;;13.20;99.90;;;;;;5040988;28;20576;-70
2022/10/15 10:03:12;;;;;;;51.45;39.22;;;13.20;99.90;;;;;;5037420;28;20044;-70
2022/10/15 10:05:38;;;;;;;52.72;37.35;;;13.30;99.90;;;;;;5058756;28;20573;-69
2022/10/15 10:08:18;;;;;;;52.47;37.92;;;13.30;99.90;;;;;;5057282;28;20044;-75
2022/10/15 10:10:52;;;;;;;51.83;39.15;;;13.30;99.90;;;;;;5039756;28;20083;-75
2022/10/15 10:13:31;;;;;;;46.92;36.55;;;13.40;99.90;;;;;;5055765;28;20097;-75
2022/10/15 10:16:03;;;;;;;48.80;36.80;;;13.40;99.90;;;;;;5062148;28;20059;-75
2022/10/15 10:18:30;;;;;;;45.58;35.47;;;13.40;99.90;;;;;;5051946;28;20052;-75
2022/10/15 10:21:06;;;;;;;43.15;35.20;;;13.50;99.90;;;;;;5062143;28;20056;-75
2022/10/15 10:23:38;;;;;;;47.00;35.78;;;13.50;99.90;;;;;;5062057;28;20044;-75
2022/10/15 10:26:09;;;;;;;47.83;36.00;;;13.50;99.90;;;;;;5042124;28;20609;-75
2022/10/15 10:28:51;;;;;;;42.50;33.78;;;13.60;99.90;;;;;;5055464;28;20036;-75
2022/10/15 10:31:25;;;;;;;46.63;34.30;;;13.60;99.90;;;;;;5072737;28;20121;-76
2022/10/15 10:33:51;;;;;;;43.70;33.60;;;13.60;99.90;;;;;;5043106;28;20079;-75
2022/10/15 10:36:23;;;;;;;42.25;33.85;;;13.60;99.90;;;;;;5041166;28;20076;-75
2022/10/15 10:39:00;;;;;;;44.38;35.05;;;13.70;99.90;;;;;;5074896;28;20132;-75
2022/10/15 10:41:51;;;;;;;41.17;34.45;;;13.80;99.90;;;;;;5072537;28;20889;-75
2022/10/15 10:44:21;;;;;;;40.65;33.78;;;13.90;99.90;;;;;;5053234;28;20045;-75
2022/10/15 10:47:02;;;;;;;44.70;35.35;;;14.00;99.90;;;;;;5056180;28;20047;-75
2022/10/15 10:49:38;;;;;;;38.25;30.33;;;14.20;99.90;;;;;;5041137;28;20102;-76
2022/10/15 10:52:05;;;;;;;39.45;31.08;;;14.30;99.90;;;;;;5042169;28;20127;-76
2022/10/15 10:54:33;;;;;;;37.05;30.63;;;14.40;99.90;;;;;;5042605;28;20398;-75
2022/10/15 10:57:00;;;;;;;36.60;30.08;;;14.50;99.90;;;;;;5056972;28;20122;-75
2022/10/15 10:59:34;;;;;;;33.90;28.90;;;14.60;99.90;;;;;;5057160;28;20043;-76
2022/10/15 11:02:02;;;;;;;35.60;29.95;;;14.60;99.90;;;;;;5054491;28;20045;-77
2022/10/15 11:04:33;;;;;;;33.35;28.98;;;14.60;99.90;;;;;;5057943;28;20163;-75
2022/10/15 11:07:02;;;;;;;33.95;29.23;;;14.60;99.90;;;;;;5041031;28;20055;-76
2022/10/15 11:09:31;;;;;;;34.88;31.08;;;14.60;99.90;;;;;;5057556;28;20036;-75
2022/10/15 11:12:34;;;;;;;33.67;28.90;;;14.70;99.90;;;;;;5036856;28;20044;-76
2022/10/15 11:15:14;;;;;;;33.53;29.27;;;14.70;99.90;;;;;;5058246;28;20495;-75
2022/10/15 11:18:05;;;;;;;31.25;27.85;;;14.70;99.90;;;;;;5072847;28;20053;-75
2022/10/15 11:20:56;;;;;;;32.17;27.80;;;14.80;99.90;;;;;;5044338;28;20045;-75
2022/10/15 11:23:21;;;;;;;32.08;28.05;;;14.80;99.90;;;;;;5059185;28;20047;-76
2022/10/15 11:25:50;;;;;;;29.20;26.05;;;14.80;99.90;;;;;;5040508;28;20085;-76
2022/10/15 11:28:45;;;;;;;29.60;26.45;;;14.80;99.90;;;;;;5038661;28;20131;-76
2022/10/15 11:31:35;;;;;;;30.85;27.65;;;14.80;99.90;;;;;;5057337;28;20155;-75
2022/10/15 11:34:20;;;;;;;28.92;25.55;;;14.80;99.90;;;;;;5057062;28;20052;-75
2022/10/15 11:37:08;;;;;;;28.15;25.17;;;14.90;99.90;;;;;;5059092;28;20049;-75
2022/10/15 11:39:48;;;;;;;27.98;24.98;;;14.80;99.90;;;;;;5044175;28;20044;-76
2022/10/15 11:42:24;;;;;;;28.63;24.92;;;14.80;99.90;;;;;;5052600;28;20049;-75
2022/10/15 11:44:50;;;;;;;28.27;25.38;;;14.80;99.90;;;;;;5059915;28;20044;-76
2022/10/15 11:47:35;;;;;;;28.58;25.65;;;14.80;99.90;;;;;;5057985;28;20110;-76
2022/10/15 11:50:25;;;;;;;27.95;25.13;;;14.90;99.90;;;;;;5062089;28;20040;-76
2022/10/15 11:53:40;;;;;;;27.10;24.20;;;14.90;99.90;;;;;;5065622;28;21056;-75
2022/10/15 11:56:16;;;;;;;28.25;25.45;;;14.90;99.90;;;;;;5028459;28;20135;-76
2022/10/15 11:58:48;;;;;;;29.60;26.48;;;14.90;99.90;;;;;;5057159;28;20632;-76
2022/10/15 12:01:37;;;;;;;30.13;27.02;;;14.90;99.90;;;;;;5056385;28;20399;-76
2022/10/15 12:04:14;;;;;;;28.23;25.50;;;14.90;99.90;;;;;;5042640;28;20044;-76
2022/10/15 12:06:46;;;;;;;27.45;24.50;;;14.90;99.90;;;;;;5059699;28;20048;-76
2022/10/15 12:09:25;;;;;;;28.48;25.55;;;15.00;99.90;;;;;;5058378;28;20499;-76
2022/10/15 12:11:58;;;;;;;28.95;25.98;;;15.00;99.90;;;;;;5035541;28;20131;-76
2022/10/15 12:14:34;;;;;;;30.88;26.52;;;15.00;99.90;;;;;;5057266;28;20037;-76
2022/10/15 12:17:07;;;;;;;27.55;24.77;;;15.00;99.90;;;;;;5041044;28;20071;-77
2022/10/15 12:20:10;;;;;;;28.35;25.45;;;15.00;99.90;;;;;;5052808;28;20410;-76
2022/10/15 12:22:58;;;;;;;29.85;26.33;;;15.00;99.90;;;;;;5076856;28;20040;-75
2022/10/15 12:25:33;;;;;;;27.77;24.90;;;15.00;99.90;;;;;;5076928;28;20067;-76
2022/10/15 12:28:09;;;;;;;28.17;25.23;;;15.00;99.90;;;;;;5058823;28;20052;-76
2022/10/15 12:30:36;;;;;;;27.63;24.80;;;15.00;99.90;;;;;;5075444;28;20139;-75
2022/10/15 12:33:20;;;;;;;28.85;25.83;;;15.00;99.90;;;;;;5029897;28;20482;-76
2022/10/15 12:35:56;;;;;;;29.08;25.95;;;15.00;99.90;;;;;;5078516;28;20052;-76
2022/10/15 12:38:35;;;;;;;30.38;26.20;;;15.00;99.90;;;;;;5039832;28;20414;-76
2022/10/15 12:41:06;;;;;;;31.15;26.88;;;15.00;99.90;;;;;;5061790;28;20115;-76
2022/10/15 12:43:35;;;;;;;33.58;28.40;;;15.00;99.90;;;;;;5062861;28;20093;-76